Flight Track Log - Related Links

Times and Time Zones

All times are in EDT time to prevent confusion due to time zone crossing. See the RPA3143 flight status page for this flight to view local times or setup timezone preferences in your user account.

Time Position Orientation Groundspeed Altitude Reporting Facility
EDT Latitude Longitude Course Direction KTS MPH feet Rate Location/Type
Sat 08:02:03 AM 38.8333 -77.0333 201° Southwest 154 177 1,200  Level Potomac TRACON
Sat 08:02:57 AM 38.7833 -77.0333 180° South 206 237 2,000 1,211 Climbing Potomac TRACON
Sat 08:03:52 AM 38.7167 -77.0333 180° South 271 312 3,400 2,087 Climbing Potomac TRACON
Sat 08:04:00 AM 38.6319 -77.2848 218° Southwest  Level FlightAware Approximate
Sat 08:04:52 AM 38.7000 -77.1167 256° West 268 308 6,000  Level Potomac TRACON
Sat 08:05:00 AM 38.5525 -77.3642 218° Southwest  Level FlightAware Approximate
Sat 08:05:52 AM 38.6833 -77.2167 258° West 274 315 8,400  Level Potomac TRACON
Sat 08:06:00 AM 38.4795 -77.4526 225° Southwest  Level FlightAware Approximate
Sat 08:07:00 AM 38.4059 -77.5387 201° Southwest  Level FlightAware Approximate
Sat 08:07:24 AM 38.6108 -77.3400 233° Southwest 295 339 11,100  Level Washington Center
Sat 08:08:25 AM 38.5453 -77.4100 220° Southwest 300 345 13,200 1,869 Climbing Washington Center
Sat 08:09:26 AM 38.4794 -77.4800 220° Southwest 305 351 14,900 1,686 Climbing Washington Center
Sat 08:10:26 AM 38.4075 -77.5550 219° Southwest 320 368 16,600 1,627 Climbing Washington Center
Sat 08:11:24 AM 38.3456 -77.6461 229° Southwest 331 381 18,100 1,412 Climbing Washington Center
Sat 08:12:25 AM 38.2875 -77.7369 231° Southwest 336 387 19,400 1,230 Climbing Washington Center
Sat 08:13:26 AM 38.2253 -77.8306 230° Southwest 341 392 20,600 1,261 Climbing Washington Center
Sat 08:14:24 AM 38.1608 -77.9289 230° Southwest 353 406 21,900 1,311 Climbing Washington Center
Sat 08:15:25 AM 38.0964 -78.0272 230° Southwest 358 412 23,200 1,180 Climbing Washington Center
Sat 08:16:26 AM 38.0317 -78.1306 232° Southwest 369 425 24,300 1,059 Climbing Washington Center
Sat 08:17:24 AM 37.9633 -78.2072 222° Southwest 369 425 25,300 958 Climbing Washington Center
Sat 08:18:25 AM 37.8739 -78.2908 216° Southwest 381 438 26,200 1,041 Climbing Washington Center
Sat 08:19:25 AM 37.7736 -78.3844 216° Southwest 409 471 27,400 1,091 Climbing Washington Center
Sat 08:20:26 AM 37.6842 -78.4706 217° Southwest 414 476 28,400 807 Climbing Washington Center
Sat 08:21:24 AM 37.5903 -78.5586 217° Southwest 420 483 29,000 756 Climbing Washington Center
Sat 08:22:25 AM 37.4942 -78.6464 216° Southwest 420 483 29,900 496 Climbing Washington Center
Sat 08:23:25 AM 37.3978 -78.7394 217° Southwest 425 489 30,000 50 Climbing Washington Center
Sat 08:24:24 AM 37.3103 -78.8142 214° Southwest 433 498 30,000  Level Washington Center
Sat 08:25:24 AM 37.2139 -78.9067 217° Southwest 433 498 30,000  Level Washington Center
Sat 08:26:24 AM 37.1175 -78.9961 217° Southwest 439 505 30,000  Level Washington Center
Sat 08:27:25 AM 37.0189 -79.0881 217° Southwest 439 505 30,000  Level Washington Center
Sat 08:28:26 AM 36.9136 -79.1872 217° Southwest 439 505 30,000  Level Washington Center
Sat 08:29:26 AM 36.8172 -79.2761 216° Southwest 439 505 30,000  Level Washington Center
Sat 08:30:24 AM 36.7183 -79.3672 216° Southwest 444 511 30,000  Level Washington Center
Sat 08:31:25 AM 36.6175 -79.4556 215° Southwest 444 511 30,000  Level Washington Center
Sat 08:33:19 AM 36.4314 -79.6236 216° Southwest 445 512 30,000  Level Atlanta Center
Sat 08:34:19 AM 36.3344 -79.7142 217° Southwest 445 512 30,000  Level Atlanta Center
Sat 08:35:19 AM 36.2356 -79.8044 216° Southwest 440 506 30,000  Level Atlanta Center
Sat 08:36:19 AM 36.1464 -79.8836 216° Southwest 440 506 30,000 400 Level Atlanta Center
Sat 08:37:19 AM 36.0333 -79.9306 199° South 433 498 30,800 800 Climbing Atlanta Center
Sat 08:38:19 AM 35.9094 -79.9725 195° South 444 511 31,600 950 Climbing Atlanta Center
Sat 08:39:19 AM 35.7775 -80.0175 195° South 449 517 32,700 900 Climbing Atlanta Center
Sat 08:40:19 AM 35.6806 -80.0506 195° South 449 517 33,400 650 Climbing Atlanta Center
Sat 08:41:19 AM 35.5467 -80.1003 197° South 454 522 34,000 300 Climbing Atlanta Center
Sat 08:42:19 AM 35.4144 -80.1425 195° South 454 522 34,000  Level Atlanta Center
Sat 08:43:19 AM 35.2947 -80.1836 196° South 448 516 34,000  Level Atlanta Center
Sat 08:44:19 AM 35.1728 -80.2250 196° South 455 524 34,000  Level Atlanta Center
Sat 08:46:42 AM 34.8950 -80.3186 195° South 450 518 34,000  Level Jacksonville Center
Sat 08:47:42 AM 34.7747 -80.3550 194° South 455 524 34,000  Level Jacksonville Center
Sat 08:48:42 AM 34.6525 -80.3992 197° South 450 518 34,000  Level Jacksonville Center
Sat 08:49:42 AM 34.5322 -80.4403 196° South 450 518 34,000  Level Jacksonville Center
Sat 08:50:42 AM 34.4081 -80.4817 195° South 450 518 34,000  Level Jacksonville Center
Sat 08:51:42 AM 34.2856 -80.5225 195° South 450 518 34,000  Level Jacksonville Center
Sat 08:52:42 AM 34.1653 -80.5586 194° South 450 518 34,000  Level Jacksonville Center
Sat 08:53:42 AM 34.0431 -80.5994 195° South 450 518 34,000  Level Jacksonville Center
Sat 08:54:42 AM 33.9206 -80.6378 195° South 450 518 34,000  Level Jacksonville Center
Sat 08:55:42 AM 33.7961 -80.6808 196° South 450 518 34,000  Level Jacksonville Center
Sat 08:56:42 AM 33.6736 -80.7189 194° South 450 518 34,000  Level Jacksonville Center
Sat 08:57:42 AM 33.5533 -80.7592 196° South 450 518 34,000  Level Jacksonville Center
Sat 08:58:42 AM 33.4289 -80.7994 195° South 450 518 34,000  Level Jacksonville Center
Sat 08:59:42 AM 33.3039 -80.8197 188° South 455 524 34,000  Level Jacksonville Center
Sat 09:00:42 AM 33.1789 -80.8350 186° South 455 524 34,000  Level Jacksonville Center
Sat 09:01:42 AM 33.0394 -80.8533 186° South 460 529 34,000  Level Jacksonville Center
Sat 09:02:42 AM 32.9144 -80.8708 187° South 460 529 34,000  Level Jacksonville Center
Sat 09:03:42 AM 32.7853 -80.8861 186° South 460 529 34,000  Level Jacksonville Center
Sat 09:04:42 AM 32.6603 -80.8989 185° South 460 529 34,000  Level Jacksonville Center
Sat 09:05:42 AM 32.5331 -80.9189 188° South 461 531 34,000  Level Jacksonville Center
Sat 09:06:42 AM 32.4061 -80.9339 186° South 462 532 34,000  Level Jacksonville Center
Sat 09:07:42 AM 32.2789 -80.9489 186° South 476 548 34,000  Level Jacksonville Center
Sat 09:08:42 AM 32.1622 -80.9611 185° South 469 540 34,000  Level Jacksonville Center
Sat 09:09:42 AM 32.0183 -80.9789 186° South 469 540 34,000  Level Jacksonville Center
Sat 09:10:42 AM 31.8892 -80.9964 187° South 469 540 34,000  Level Jacksonville Center
Sat 09:11:42 AM 31.7600 -81.0136 186° South 469 540 34,000  Level Jacksonville Center
Sat 09:12:42 AM 31.6331 -81.0308 187° South 469 540 34,000  Level Jacksonville Center
Sat 09:13:42 AM 31.5142 -81.0431 185° South 462 532 34,000  Level Jacksonville Center
Sat 09:14:42 AM 31.3683 -81.0628 187° South 481 554 34,000  Level Jacksonville Center
Sat 09:15:42 AM 31.2494 -81.0797 187° South 481 554 34,000  Level Jacksonville Center
Sat 09:16:42 AM 31.1161 -81.0969 186° South 481 554 34,000  Level Jacksonville Center
Sat 09:17:42 AM 30.9828 -81.1139 186° South 481 554 34,000  Level Jacksonville Center
Sat 09:18:42 AM 30.8494 -81.1286 185° South 481 554 34,000  Level Jacksonville Center
Sat 09:19:42 AM 30.7181 -81.1456 186° South 481 554 34,000  Level Jacksonville Center
Sat 09:20:42 AM 30.5844 -81.1553 184° South 481 554 34,000  Level Jacksonville Center
Sat 09:21:42 AM 30.4508 -81.1503 178° South 476 548 34,000  Level Jacksonville Center
Sat 09:22:42 AM 30.3172 -81.1456 178° South 476 548 34,000 -550 Level Jacksonville Center
Sat 09:23:42 AM 30.1814 -81.1408 178° South 481 554 32,900 -1,650 Descending Jacksonville Center
Sat 09:24:42 AM 30.0478 -81.1361 178° South 481 554 30,700 -2,250 Descending Jacksonville Center
Sat 09:25:42 AM 29.9142 -81.1314 178° South 481 554 28,400 -2,350 Descending Jacksonville Center
Sat 09:26:42 AM 29.7803 -81.1289 179° South 481 554 26,000 -2,300 Descending Jacksonville Center
Sat 09:27:42 AM 29.6572 -81.1264 179° South 468 539 23,800 -2,200 Descending Jacksonville Center
Sat 09:28:42 AM 29.5403 -81.1189 177° South 445 512 21,600 -2,150 Descending Jacksonville Center
Sat 09:29:42 AM 29.4169 -81.1164 179° South 400 460 19,500 -1,950 Descending Jacksonville Center
Sat 09:30:42 AM 29.3083 -81.1064 175° South 400 460 17,700 -1,900 Descending Jacksonville Center
Sat 09:31:42 AM 29.2017 -81.1014 178° South 393 452 15,700 -1,950 Descending Jacksonville Center
Sat 09:32:42 AM 29.1017 -81.0961 177° South 370 426 13,800 -1,800 Descending Jacksonville Center
Sat 09:33:42 AM 29.0056 -81.0906 177° South 354 407 12,100 -1,400 Descending Jacksonville Center
Sat 09:34:42 AM 28.9219 -81.0850 177° South 321 369 11,000 -1,400 Descending Jacksonville Center
Sat 09:35:42 AM 28.8450 -81.1031 192° South 299 344 9,300 -1,736 Descending Jacksonville Center
Sat 09:36:43 AM 28.7744 -81.1328 200° South 283 326 7,500 -1,610 Descending Jacksonville Center
Sat 09:37:45 AM 28.7333 -81.2000 235° Southwest 267 307 6,000 -1,426 Descending Orlando TRACON
Sat 09:38:45 AM 28.7000 -81.2667 240° Southwest 245 282 4,600 -1,333 Descending Orlando TRACON
Sat 09:39:51 AM 28.6333 -81.2833 192° South 237 273 3,200 -1,273 Descending Orlando TRACON

Login

Don't have an account? Register now (free) for customized features, flight alerts, and more!